Time;durP1;ratioP1;P1;durP2;ratioP2;P2;SDS_P1;SDS_P2;PMS_P1;PMS_P2;Temp;Humidity;BMP_temperature;BMP_pressure;BME280_temperature;BME280_humidity;BME280_pressure;Samples;Min_cycle;Max_cycle;Signal;HPM_P1;HPM_P2
2022/01/30 00:00:11;;;;;;;0.70;0.70;;;;;;;-5.43;89.58;92638.28;4954982;28;20553;-73
2022/01/30 00:02:38;;;;;;;0.87;0.87;;;;;;;-5.39;88.80;92642.44;4955533;28;20569;-73
2022/01/30 00:05:06;;;;;;;0.73;0.73;;;;;;;-6.07;88.32;92525.72;4954729;28;20557;-73
2022/01/30 00:07:34;;;;;;;1.07;1.07;;;;;;;-5.53;88.48;92600.41;4954986;28;20609;-73
2022/01/30 00:10:01;;;;;;;4.00;1.03;;;;;;;-5.57;89.01;92634.75;4954809;28;20213;-73
2022/01/30 00:12:39;;;;;;;0.83;0.83;;;;;;;-5.97;90.22;92582.44;4954926;28;20212;-73
2022/01/30 00:15:07;;;;;;;0.57;0.57;;;;;;;-5.85;90.89;92618.69;4954630;28;20220;-73
2022/01/30 00:17:42;;;;;;;1.00;1.00;;;;;;;-5.95;91.23;92612.00;4954625;28;20581;-73
2022/01/30 00:20:15;;;;;;;1.00;1.00;;;;;;;-5.99;92.26;92612.75;4954643;28;20716;-73
2022/01/30 00:22:48;;;;;;;0.67;0.67;;;;;;;-6.06;92.27;92610.97;4955243;28;20645;-73
2022/01/30 00:25:24;;;;;;;0.87;0.87;;;;;;;-6.15;93.15;92600.97;4954528;28;20616;-73
2022/01/30 00:28:00;;;;;;;0.70;0.70;;;;;;;-6.14;93.42;92607.56;4955110;28;20268;-73
2022/01/30 00:30:33;;;;;;;3.53;1.03;;;;;;;-6.33;93.23;92576.88;4954420;28;20482;-72
2022/01/30 00:33:01;;;;;;;0.90;0.90;;;;;;;-6.45;93.13;92557.81;4954454;28;20643;-72
2022/01/30 00:35:29;;;;;;;0.70;0.70;;;;;;;-6.67;93.14;92513.19;4954652;28;20678;-73
2022/01/30 00:37:57;;;;;;;0.90;0.90;;;;;;;-6.43;92.80;92548.88;4953317;28;20625;-73
2022/01/30 00:40:24;;;;;;;2.20;1.70;;;;;;;-5.94;92.11;92612.03;4955084;28;20588;-73
2022/01/30 00:42:51;;;;;;;0.70;0.70;;;;;;;-5.90;91.71;92618.66;4954223;28;20225;-73
2022/01/30 00:45:19;;;;;;;0.60;0.60;;;;;;;-5.99;91.39;92598.81;4954248;28;20545;-73
2022/01/30 00:47:47;;;;;;;0.80;0.80;;;;;;;-6.53;91.23;92512.63;4953934;28;20560;-73
2022/01/30 00:50:16;;;;;;;0.50;0.50;;;;;;;-6.69;91.16;92503.31;4954468;28;20472;-73
2022/01/30 00:52:43;;;;;;;1.13;1.13;;;;;;;-6.75;91.04;92508.94;4954069;28;20656;-73
2022/01/30 00:55:10;;;;;;;0.70;0.70;;;;;;;-6.52;91.88;92536.38;4954919;28;20473;-73
2022/01/30 00:57:41;;;;;;;0.77;0.77;;;;;;;-6.20;92.42;92573.03;4953721;28;20611;-72
2022/01/30 01:00:10;;;;;;;0.93;0.93;;;;;;;-6.13;91.39;92570.69;4954131;28;20209;-73
2022/01/30 01:02:37;;;;;;;0.57;0.57;;;;;;;-6.12;91.36;92572.34;4954372;28;20533;-73
2022/01/30 01:05:06;;;;;;;0.60;0.60;;;;;;;-6.26;90.85;92531.13;4954618;28;20546;-72
2022/01/30 01:07:37;;;;;;;0.93;0.93;;;;;;;-6.56;91.24;92489.63;4954377;28;20476;-73
2022/01/30 01:10:09;;;;;;;0.80;0.80;;;;;;;-6.67;91.48;92481.25;4955285;28;20483;-73
2022/01/30 01:12:55;;;;;;;0.60;0.60;;;;;;;-6.49;91.79;92497.16;4954126;28;20515;-73
2022/01/30 01:23:20;;;;;;;0.80;0.80;;;;;;;-6.05;89.69;92522.50;4954250;28;20591;-73
2022/01/30 01:23:51;;;;;;;0.60;0.60;;;;;;;-5.93;89.21;92515.31;4954151;28;20464;-73
2022/01/30 01:26:19;;;;;;;0.70;0.70;;;;;;;-5.79;88.45;92531.88;4953993;28;20660;-73
2022/01/30 01:28:47;;;;;;;0.60;0.60;;;;;;;-5.94;89.46;92511.22;4954065;28;20491;-73
2022/01/30 01:31:15;;;;;;;1.27;1.27;;;;;;;-6.30;88.83;92466.34;4954875;28;20561;-73
2022/01/30 01:33:57;;;;;;;1.70;1.60;;;;;;;-5.87;88.22;92514.59;4954353;28;20495;-73
2022/01/30 01:36:24;;;;;;;0.60;0.60;;;;;;;-6.37;87.08;92438.41;4954199;28;20224;-73
2022/01/30 01:38:53;;;;;;;1.03;1.03;;;;;;;-5.89;88.26;92507.19;4953608;28;20576;-73
2022/01/30 01:41:22;;;;;;;0.83;0.83;;;;;;;-6.12;88.45;92481.41;4954521;28;20200;-73
2022/01/30 01:43:51;;;;;;;0.93;0.93;;;;;;;-6.34;89.24;92458.09;4955342;28;20568;-73
2022/01/30 01:46:24;;;;;;;0.90;0.90;;;;;;;-6.46;87.44;92442.31;4954281;28;20559;-73
2022/01/30 01:48:53;;;;;;;1.57;1.57;;;;;;;-6.20;86.96;92482.09;4953501;28;20551;-73
2022/01/30 01:51:23;;;;;;;0.70;0.70;;;;;;;-6.68;87.88;92406.75;4954557;28;20547;-73
2022/01/30 01:53:53;;;;;;;0.93;0.93;;;;;;;-6.36;88.25;92452.31;4953872;28;20220;-73
2022/01/30 01:56:22;;;;;;;1.20;1.20;;;;;;;-6.35;89.09;92455.63;4953339;28;20627;-73
2022/01/30 01:58:50;;;;;;;0.83;0.83;;;;;;;-6.97;89.57;92402.94;4952752;28;20608;-73
2022/01/30 02:01:18;;;;;;;0.93;0.93;;;;;;;-7.46;90.91;92345.63;4955681;28;20472;-73
2022/01/30 02:03:45;;;;;;;0.80;0.80;;;;;;;-6.88;90.99;92435.88;4957571;28;20195;-73
2022/01/30 02:06:17;;;;;;;1.43;1.43;;;;;;;-7.01;91.33;92445.41;4957211;28;20533;-73
2022/01/30 02:08:48;;;;;;;0.60;0.60;;;;;;;-7.39;91.93;92398.91;4956923;28;20587;-73
2022/01/30 02:11:27;;;;;;;1.03;1.03;;;;;;;-7.11;92.21;92451.78;4957125;28;20600;-73
2022/01/30 02:14:19;;;;;;;0.80;0.80;;;;;;;-7.10;92.05;92428.06;4957077;28;20581;-73
2022/01/30 02:25:15;;;;;;;0.80;0.80;;;;;;;-7.15;92.93;92440.22;4956137;28;20609;-73
2022/01/30 02:27:42;;;;;;;0.70;0.70;;;;;;;-7.37;92.54;92396.47;4957789;28;20540;-73
2022/01/30 02:30:13;;;;;;;1.40;0.83;;;;;;;-7.16;91.34;92424.72;4955928;28;20204;-73
2022/01/30 02:32:41;;;;;;;0.70;0.70;;;;;;;-7.19;91.79;92422.19;4937713;28;20269;-73
2022/01/30 02:35:09;;;;;;;0.73;0.73;;;;;;;-7.27;91.22;92398.31;4937101;28;20556;-73
2022/01/30 02:37:37;;;;;;;1.00;1.00;;;;;;;-6.93;90.96;92439.84;4955392;28;20520;-73
2022/01/30 02:40:09;;;;;;;1.17;1.17;;;;;;;-7.05;90.93;92433.91;4956936;28;20469;-73
2022/01/30 02:42:41;;;;;;;0.67;0.67;;;;;;;-7.24;90.66;92432.72;4956511;28;20495;-73
2022/01/30 02:45:11;;;;;;;0.80;0.80;;;;;;;-7.36;91.99;92416.13;4956087;28;20488;-73
2022/01/30 02:47:52;;;;;;;0.80;0.80;;;;;;;-7.63;91.73;92364.06;4957117;28;20225;-73
2022/01/30 02:50:31;;;;;;;0.67;0.67;;;;;;;-7.32;92.21;92412.13;4956636;28;20653;-73
2022/01/30 02:53:07;;;;;;;0.90;0.90;;;;;;;-7.53;92.96;92374.09;4956529;28;20215;-73
2022/01/30 02:55:35;;;;;;;0.70;0.70;;;;;;;-7.44;92.72;92384.91;4956314;28;20602;-73
2022/01/30 02:58:02;;;;;;;0.67;0.67;;;;;;;-7.37;92.07;92379.28;4956253;28;20622;-73
2022/01/30 03:00:30;;;;;;;0.70;0.70;;;;;;;-7.11;91.37;92407.63;4955556;28;20507;-73
2022/01/30 03:02:57;;;;;;;1.23;1.23;;;;;;;-7.19;90.33;92379.63;4955902;28;20587;-72
2022/01/30 03:05:25;;;;;;;0.60;0.60;;;;;;;-6.91;89.75;92412.88;4956021;28;20576;-72
2022/01/30 03:07:52;;;;;;;1.00;1.00;;;;;;;-6.81;90.05;92419.59;4955795;28;20577;-72
2022/01/30 03:10:21;;;;;;;1.53;1.53;;;;;;;-6.85;89.87;92416.28;4955835;28;20625;-72
2022/01/30 03:12:49;;;;;;;0.60;0.60;;;;;;;-7.05;90.29;92415.09;4954826;28;20633;-72
2022/01/30 03:15:16;;;;;;;1.00;1.00;;;;;;;-7.23;90.23;92395.94;4956755;28;20588;-72
2022/01/30 03:17:43;;;;;;;1.00;1.00;;;;;;;-7.24;89.98;92423.72;4955594;28;20594;-73
2022/01/30 03:20:11;;;;;;;0.87;0.87;;;;;;;-7.39;91.39;92403.81;4955201;28;20194;-73
2022/01/30 03:22:40;;;;;;;1.57;1.57;;;;;;;-8.08;91.79;92281.50;4955604;28;20560;-73
2022/01/30 03:25:08;;;;;;;3.10;1.73;;;;;;;-7.36;92.60;92391.59;4956315;28;20680;-73
2022/01/30 03:27:36;;;;;;;1.03;1.03;;;;;;;-7.44;92.27;92371.00;4955946;28;20598;-73
2022/01/30 03:30:06;;;;;;;1.57;1.53;;;;;;;-7.85;92.08;92311.34;4955966;28;20598;-73
2022/01/30 03:32:35;;;;;;;1.07;1.07;;;;;;;-7.27;89.63;92374.63;4955108;28;20212;-73
2022/01/30 03:35:03;;;;;;;0.50;0.50;;;;;;;-7.18;88.89;92366.56;4955334;28;20564;-72
2022/01/30 03:37:30;;;;;;;0.50;0.50;;;;;;;-7.27;89.32;92349.25;4955501;28;20615;-73
2022/01/30 03:39:58;;;;;;;1.20;1.20;;;;;;;-7.48;89.26;92310.41;4955235;28;20587;-73
2022/01/30 03:42:25;;;;;;;1.20;1.20;;;;;;;-7.19;90.51;92378.00;4955735;28;20655;-73
2022/01/30 03:44:54;;;;;;;1.27;1.27;;;;;;;-8.05;91.56;92261.09;4956932;28;20196;-73
2022/01/30 03:47:24;;;;;;;1.37;1.37;;;;;;;-8.04;91.71;92287.25;4955666;28;20483;-73
2022/01/30 03:49:52;;;;;;;1.03;1.03;;;;;;;-7.56;91.66;92369.16;4955740;28;20219;-73
2022/01/30 03:52:19;;;;;;;0.90;0.90;;;;;;;-8.05;92.35;92290.50;4955434;28;20485;-73
2022/01/30 03:54:46;;;;;;;1.27;1.27;;;;;;;-7.39;91.06;92373.53;4955380;28;20226;-73
2022/01/30 03:57:14;;;;;;;2.07;2.00;;;;;;;-7.50;89.77;92334.09;4955020;28;20323;-73
2022/01/30 03:59:41;;;;;;;2.10;1.13;;;;;;;-7.39;90.33;92362.09;4954623;28;20588;-73
2022/01/30 04:02:10;;;;;;;1.00;1.00;;;;;;;-7.45;90.38;92347.28;4954536;28;20599;-73
2022/01/30 04:04:37;;;;;;;0.70;0.70;;;;;;;-7.57;91.04;92320.06;4954900;28;20596;-73
2022/01/30 04:07:05;;;;;;;0.80;0.80;;;;;;;-7.80;90.18;92282.84;4954907;28;20618;-73
2022/01/30 04:09:33;;;;;;;0.90;0.90;;;;;;;-7.54;91.61;92325.00;4955560;28;20184;-73
2022/01/30 04:12:00;;;;;;;0.80;0.80;;;;;;;-7.51;91.58;92343.88;4954889;28;20585;-73
2022/01/30 04:14:28;;;;;;;0.80;0.80;;;;;;;-7.47;91.10;92331.69;4955366;28;20557;-73
2022/01/30 04:16:57;;;;;;;1.10;1.10;;;;;;;-7.40;91.21;92320.38;4954699;28;20629;-73
2022/01/30 04:19:25;;;;;;;2.60;1.77;;;;;;;-7.20;91.44;92341.16;4954976;28;20449;-73
2022/01/30 04:21:53;;;;;;;1.43;1.43;;;;;;;-7.48;91.39;92298.16;4954591;28;20620;-73
2022/01/30 04:24:20;;;;;;;1.27;0.93;;;;;;;-7.84;91.44;92268.88;4954635;28;20605;-73
2022/01/30 04:26:47;;;;;;;1.13;0.83;;;;;;;-7.74;91.54;92295.22;4954921;28;20488;-73
2022/01/30 04:29:15;;;;;;;3.83;1.27;;;;;;;-7.64;91.27;92316.66;4956301;28;20585;-73
2022/01/30 04:31:43;;;;;;;1.20;1.20;;;;;;;-7.49;90.30;92354.56;4954528;28;20542;-73
2022/01/30 04:34:11;;;;;;;0.93;0.93;;;;;;;-7.65;90.11;92331.34;4954871;28;20552;-74
2022/01/30 04:36:53;;;;;;;0.80;0.80;;;;;;;-7.41;89.63;92360.41;4954687;28;20478;-73
2022/01/30 04:39:30;;;;;;;0.77;0.77;;;;;;;-7.79;90.63;92311.47;4954528;28;20479;-73
2022/01/30 04:42:10;;;;;;;0.97;0.97;;;;;;;-7.69;88.70;92314.91;4955203;28;20584;-73
2022/01/30 04:53:20;;;;;;;1.10;1.10;;;;;;;-7.74;90.91;92361.41;4957227;28;20259;-73
2022/01/30 04:58:45;;;;;;;1.40;1.37;;;;;;;-7.68;91.24;92368.91;4953563;28;20313;-73
2022/01/30 05:01:18;;;;;;;0.90;0.90;;;;;;;-7.79;90.90;92371.91;4954064;28;20463;-73
2022/01/30 05:04:02;;;;;;;1.27;1.27;;;;;;;-7.61;90.13;92375.59;4954453;28;20651;-73
2022/01/30 05:06:52;;;;;;;1.57;1.57;;;;;;;-7.47;89.70;92379.91;4953650;28;20547;-73
2022/01/30 05:09:21;;;;;;;1.70;1.10;;;;;;;-7.73;89.46;92306.69;4954871;28;20622;-73
2022/01/30 05:11:48;;;;;;;0.90;0.90;;;;;;;-7.29;89.03;92361.47;4954124;28;20273;-73
2022/01/30 05:14:16;;;;;;;0.70;0.70;;;;;;;-7.31;89.73;92354.88;4953878;28;20272;-73
2022/01/30 05:16:47;;;;;;;0.70;0.70;;;;;;;-7.16;87.72;92382.16;4953848;28;20595;-73
2022/01/30 05:19:15;;;;;;;0.70;0.70;;;;;;;-7.23;87.21;92358.31;4953723;28;20223;-73
2022/01/30 05:21:43;;;;;;;0.93;0.93;;;;;;;-7.15;87.57;92366.63;4953518;28;20639;-73
2022/01/30 05:24:11;;;;;;;0.90;0.90;;;;;;;-7.06;87.76;92361.06;4954064;28;20580;-73
2022/01/30 05:26:42;;;;;;;0.90;0.90;;;;;;;-7.14;87.49;92346.19;4953776;28;20564;-73
2022/01/30 05:29:10;;;;;;;1.17;1.17;;;;;;;-7.22;87.38;92338.72;4953806;28;20635;-73
2022/01/30 05:31:38;;;;;;;2.80;2.70;;;;;;;-7.16;86.34;92342.91;4954199;28;20489;-73
2022/01/30 05:34:06;;;;;;;2.37;2.37;;;;;;;-7.50;86.65;92285.06;4953228;28;20199;-73
2022/01/30 05:36:33;;;;;;;2.17;2.07;;;;;;;-7.53;87.08;92287.44;4948857;28;20481;-74
2022/01/30 05:39:06;;;;;;;1.40;1.40;;;;;;;-7.44;85.69;92299.88;4939499;28;20243;-74
2022/01/30 05:41:34;;;;;;;3.77;3.50;;;;;;;-7.79;85.60;92264.06;4943389;28;20197;-75
2022/01/30 05:44:10;;;;;;;2.10;2.07;;;;;;;-7.74;87.18;92302.59;4945834;28;20519;-75
2022/01/30 05:46:44;;;;;;;1.57;1.57;;;;;;;-7.76;88.83;92298.44;4946279;28;20610;-74
2022/01/30 05:49:17;;;;;;;1.90;1.90;;;;;;;-7.63;87.36;92315.88;4941997;28;20597;-74
2022/01/30 05:51:45;;;;;;;9.33;3.10;;;;;;;-7.62;86.64;92319.97;4947088;28;20596;-74
2022/01/30 05:54:15;;;;;;;3.13;2.93;;;;;;;-7.90;87.50;92267.94;4947372;28;20514;-74
2022/01/30 05:57:01;;;;;;;2.37;2.17;;;;;;;-8.41;90.18;92190.22;4945356;28;20591;-74
2022/01/30 05:59:36;;;;;;;2.70;2.60;;;;;;;-8.14;91.17;92229.91;4939628;28;20608;-73
2022/01/30 06:02:12;;;;;;;3.40;3.30;;;;;;;-7.73;91.62;92287.06;4944422;28;20495;-73
2022/01/30 06:04:40;;;;;;;3.83;2.23;;;;;;;-7.93;90.95;92278.50;5115498;22;20442;-74
2022/01/30 06:07:09;;;;;;;7.80;3.30;;;;;;;-8.01;92.29;92267.75;5023493;28;20486;-74
2022/01/30 06:09:36;;;;;;;1.73;1.73;;;;;;;-7.80;91.55;92272.22;5020873;28;20204;-75
2022/01/30 06:12:04;;;;;;;2.13;2.00;;;;;;;-7.94;91.83;92254.78;5016751;28;20514;-74
2022/01/30 06:14:33;;;;;;;3.23;3.03;;;;;;;-8.00;92.72;92237.53;5017597;28;20560;-74
2022/01/30 06:17:01;;;;;;;3.47;3.23;;;;;;;-8.01;93.58;92234.25;5020791;28;20205;-73
2022/01/30 06:19:28;;;;;;;1.97;1.97;;;;;;;-7.78;92.46;92216.69;5020459;28;20868;-73
2022/01/30 06:21:55;;;;;;;2.83;2.73;;;;;;;-7.75;91.75;92197.13;5018844;28;20301;-73
2022/01/30 06:24:22;;;;;;;3.27;3.17;;;;;;;-7.62;92.68;92211.28;5020201;28;20633;-74
2022/01/30 06:26:49;;;;;;;8.90;5.23;;;;;;;-7.71;92.07;92228.25;5022441;28;20519;-75
2022/01/30 06:29:16;;;;;;;6.00;5.73;;;;;;;-7.63;91.91;92227.59;5032461;28;20499;-73
2022/01/30 06:31:44;;;;;;;4.17;3.87;;;;;;;-7.55;92.03;92211.38;5024778;28;20587;-73
2022/01/30 06:34:11;;;;;;;3.40;3.30;;;;;;;-7.28;92.14;92244.53;5024163;28;20684;-73
2022/01/30 06:36:39;;;;;;;4.50;4.20;;;;;;;-7.32;92.36;92243.66;5030467;28;20553;-73
2022/01/30 06:39:06;;;;;;;4.67;4.43;;;;;;;-7.29;93.31;92267.44;5024307;28;20560;-73
2022/01/30 06:41:33;;;;;;;5.07;4.57;;;;;;;-7.08;93.25;92284.94;5027819;28;20306;-72
2022/01/30 06:44:00;;;;;;;5.87;5.37;;;;;;;-6.93;92.87;92299.91;5028448;28;20629;-73
2022/01/30 06:46:27;;;;;;;8.03;6.40;;;;;;;-6.95;91.96;92289.28;5028742;28;20238;-73
2022/01/30 06:48:56;;;;;;;7.50;6.80;;;;;;;-6.86;91.08;92289.41;5029196;28;20482;-74
2022/01/30 06:51:23;;;;;;;8.37;5.10;;;;;;;-6.83;90.95;92299.28;5026416;28;20641;-72
2022/01/30 06:53:50;;;;;;;4.20;4.00;;;;;;;-7.02;91.51;92277.69;5031882;28;20278;-72
2022/01/30 06:56:17;;;;;;;5.13;4.73;;;;;;;-6.95;91.73;92294.19;5027535;28;20556;-74
2022/01/30 06:58:44;;;;;;;3.93;2.90;;;;;;;-6.89;91.17;92286.91;5029491;28;20228;-73
2022/01/30 07:01:11;;;;;;;2.53;2.47;;;;;;;-6.85;91.14;92280.41;5025909;28;20226;-73
2022/01/30 07:03:39;;;;;;;3.10;3.00;;;;;;;-6.72;91.46;92265.06;5025376;28;20572;-73
2022/01/30 07:06:07;;;;;;;2.67;2.60;;;;;;;-6.58;91.11;92255.44;4960223;28;20581;-73
2022/01/30 07:08:34;;;;;;;4.17;2.10;;;;;;;-6.44;90.91;92246.66;4949407;28;20499;-76
2022/01/30 07:11:01;;;;;;;4.40;4.30;;;;;;;-6.39;91.45;92227.88;4945987;28;20577;-74
2022/01/30 07:13:28;;;;;;;3.40;3.27;;;;;;;-6.06;91.71;92250.44;4945429;28;20704;-73
2022/01/30 07:15:55;;;;;;;1.93;1.93;;;;;;;-5.94;90.89;92244.84;4942733;28;20556;-75
2022/01/30 07:18:23;;;;;;;3.63;3.53;;;;;;;-5.63;90.10;92253.34;4947314;28;20674;-74
2022/01/30 07:20:50;;;;;;;2.70;2.60;;;;;;;-5.35;89.96;92247.09;4945193;28;20283;-75
2022/01/30 07:23:18;;;;;;;2.40;2.40;;;;;;;-5.04;89.55;92247.38;4951968;28;20674;-73
2022/01/30 07:25:45;;;;;;;3.53;3.43;;;;;;;-4.73;89.04;92245.97;4948054;28;20623;-74
2022/01/30 07:28:12;;;;;;;3.17;3.07;;;;;;;-4.38;88.01;92238.00;4945121;28;20680;-73
2022/01/30 07:30:40;;;;;;;2.30;2.30;;;;;;;-4.01;86.57;92264.53;4946342;28;20579;-72
2022/01/30 07:33:07;;;;;;;5.30;5.10;;;;;;;-3.75;85.35;92277.00;4941022;28;20676;-73
2022/01/30 07:35:37;;;;;;;3.87;3.63;;;;;;;-3.49;84.85;92277.09;4947494;28;20304;-73
2022/01/30 07:38:05;;;;;;;3.10;2.87;;;;;;;-3.27;84.98;92282.94;4952091;28;20252;-73
2022/01/30 07:40:34;;;;;;;10.87;9.77;;;;;;;-3.14;83.53;92287.06;4947488;28;20563;-73
2022/01/30 07:43:01;;;;;;;8.47;7.47;;;;;;;-3.33;82.98;92283.75;4944479;28;20234;-73
2022/01/30 07:45:29;;;;;;;6.33;5.33;;;;;;;-3.42;83.07;92289.47;4946414;28;20678;-73
2022/01/30 07:47:56;;;;;;;3.20;3.10;;;;;;;-3.44;82.74;92288.66;4949555;28;20615;-72
2022/01/30 07:50:23;;;;;;;3.27;3.17;;;;;;;-3.36;82.86;92291.13;4949510;28;20234;-72
2022/01/30 07:52:50;;;;;;;6.73;6.10;;;;;;;-3.31;83.27;92294.44;4944443;28;20606;-73
2022/01/30 07:55:19;;;;;;;6.53;6.13;;;;;;;-3.27;83.62;92305.16;4946618;28;20588;-73
2022/01/30 07:57:48;;;;;;;5.83;4.90;;;;;;;-3.55;82.86;92324.00;4946134;28;20563;-74
2022/01/30 08:00:17;;;;;;;5.23;4.97;;;;;;;-3.49;83.64;92302.59;4948794;28;20588;-75
2022/01/30 08:02:44;;;;;;;4.27;4.17;;;;;;;-3.53;84.20;92283.66;4945240;28;20286;-75
2022/01/30 08:05:11;;;;;;;4.07;3.90;;;;;;;-3.38;85.01;92277.97;4942952;28;20704;-75
2022/01/30 08:07:38;;;;;;;4.87;4.57;;;;;;;-3.44;85.25;92258.19;4944027;28;20247;-72
2022/01/30 08:10:06;;;;;;;2.43;2.43;;;;;;;-3.27;84.30;92282.94;4952713;28;20635;-74
2022/01/30 08:12:34;;;;;;;4.83;4.63;;;;;;;-3.28;85.26;92264.00;4947715;28;20610;-73
2022/01/30 08:15:03;;;;;;;3.43;3.33;;;;;;;-3.23;85.62;92248.38;4944618;28;20480;-73
2022/01/30 08:17:32;;;;;;;6.23;4.63;;;;;;;-3.30;83.54;92240.94;4947729;28;20550;-74
2022/01/30 08:19:59;;;;;;;3.70;3.50;;;;;;;-3.30;83.89;92229.41;4947362;28;20228;-73
2022/01/30 08:22:29;;;;;;;3.43;3.33;;;;;;;-3.26;83.65;92250.00;4951389;28;20599;-73
2022/01/30 08:24:56;;;;;;;9.53;8.23;;;;;;;-3.27;83.51;92266.47;4951830;28;20486;-71
2022/01/30 08:27:24;;;;;;;5.90;5.60;;;;;;;-3.12;82.70;92253.34;4950423;28;21189;-75
2022/01/30 08:29:51;;;;;;;4.40;4.10;;;;;;;-3.15;82.04;92268.13;4949148;28;20651;-74
2022/01/30 08:32:20;;;;;;;7.30;4.60;;;;;;;-3.15;82.54;92254.13;4950586;28;20566;-73
2022/01/30 08:34:47;;;;;;;5.97;5.57;;;;;;;-3.11;82.83;92250.88;4949109;28;20680;-74
2022/01/30 08:37:14;;;;;;;5.07;4.63;;;;;;;-3.10;82.70;92249.22;4947589;28;20613;-73
2022/01/30 08:39:41;;;;;;;2.83;2.73;;;;;;;-2.98;81.19;92256.63;4944340;28;20723;-74
2022/01/30 08:42:09;;;;;;;3.47;3.37;;;;;;;-2.82;81.01;92268.22;4946982;28;20573;-73
2022/01/30 08:44:36;;;;;;;4.60;4.27;;;;;;;-2.78;81.22;92269.03;4946702;28;20586;-72
2022/01/30 08:47:04;;;;;;;8.97;8.23;;;;;;;-2.70;81.25;92325.06;4941701;28;20508;-74
2022/01/30 08:49:32;;;;;;;4.53;4.13;;;;;;;-2.73;80.80;92287.16;4943240;28;20211;-74
2022/01/30 08:51:59;;;;;;;5.87;5.57;;;;;;;-2.99;81.39;92302.78;4946620;28;20586;-75
2022/01/30 08:54:27;;;;;;;4.83;4.63;;;;;;;-3.09;81.85;92288.72;4940769;28;20480;-74
2022/01/30 08:56:54;;;;;;;5.50;5.10;;;;;;;-3.07;81.52;92276.41;4945558;28;20583;-75
2022/01/30 08:59:21;;;;;;;4.73;4.60;;;;;;;-2.90;82.45;92283.84;4945725;28;20622;-75
2022/01/30 09:01:48;;;;;;;13.73;10.77;;;;;;;-2.83;81.74;92253.38;4947687;28;20558;-74
2022/01/30 09:04:16;;;;;;;5.33;5.10;;;;;;;-2.76;81.95;92222.91;4945334;28;20619;-76
2022/01/30 09:06:44;;;;;;;5.33;5.03;;;;;;;-2.57;81.40;92250.09;4950904;28;20231;-75
2022/01/30 09:09:11;;;;;;;3.80;3.70;;;;;;;-2.26;80.66;92238.53;4938202;28;20564;-74
2022/01/30 09:11:39;;;;;;;9.67;8.43;;;;;;;-2.07;79.25;92251.69;4939958;28;20462;-73
2022/01/30 09:14:07;;;;;;;7.93;7.23;;;;;;;-1.82;78.56;92238.44;4939017;28;20537;-74
2022/01/30 09:16:35;;;;;;;7.33;6.70;;;;;;;-1.46;76.19;92219.28;4937588;28;20557;-74
2022/01/30 09:19:02;;;;;;;9.17;8.47;;;;;;;-1.22;77.38;92214.22;4940021;28;20635;-74
2022/01/30 09:21:29;;;;;;;8.40;7.80;;;;;;;-0.97;74.90;92219.88;4942292;28;20586;-75
2022/01/30 09:23:58;;;;;;;5.03;4.63;;;;;;;-0.77;72.24;92234.59;4943122;28;20547;-75
2022/01/30 09:26:25;;;;;;;6.27;5.87;;;;;;;-0.70;72.63;92227.09;4936129;28;20487;-74
2022/01/30 09:28:52;;;;;;;5.87;5.47;;;;;;;-0.39;70.94;92220.22;4939160;28;20475;-74
2022/01/30 09:31:20;;;;;;;13.90;11.67;;;;;;;-0.20;71.05;92194.41;4939887;28;20619;-75
2022/01/30 09:33:47;;;;;;;8.27;7.60;;;;;;;-0.10;68.33;92245.63;4937891;28;20489;-76
2022/01/30 09:36:15;;;;;;;15.83;8.37;;;;;;;-0.23;71.97;92204.38;4935807;28;20570;-73
2022/01/30 09:38:42;;;;;;;10.73;7.07;;;;;;;-0.17;72.55;92204.31;4935202;28;20513;-72
2022/01/30 09:41:11;;;;;;;8.83;7.47;;;;;;;-0.17;71.72;92218.41;4938540;28;20469;-73
2022/01/30 09:43:38;;;;;;;6.57;6.17;;;;;;;-0.20;71.75;92184.50;4944011;28;20462;-73
2022/01/30 09:46:06;;;;;;;8.20;7.37;;;;;;;-0.07;72.74;92176.09;4940501;28;20517;-74
2022/01/30 09:48:36;;;;;;;5.80;5.60;;;;;;;0.03;70.67;92218.19;4941253;28;20570;-73
2022/01/30 09:51:04;;;;;;;9.00;8.23;;;;;;;0.24;70.53;92211.34;4944149;28;20561;-74
2022/01/30 09:53:32;;;;;;;8.27;7.90;;;;;;;0.46;69.76;92188.72;4947504;28;20478;-73
2022/01/30 09:56:02;;;;;;;7.57;6.93;;;;;;;0.44;68.53;92198.72;4946884;28;20507;-73
2022/01/30 09:58:31;;;;;;;6.53;6.03;;;;;;;0.59;68.84;92192.72;4941679;28;20225;-73
2022/01/30 10:00:59;;;;;;;21.30;8.23;;;;;;;0.52;68.90;92196.94;4946494;28;20565;-73
2022/01/30 10:03:28;;;;;;;7.00;6.60;;;;;;;0.61;67.94;92176.97;4945892;28;20476;-71
2022/01/30 10:06:06;;;;;;;8.83;8.03;;;;;;;0.60;67.52;92175.31;4948334;28;20313;-72
2022/01/30 10:08:41;;;;;;;14.17;9.53;;;;;;;0.44;67.34;92191.25;4952339;28;20594;-72
2022/01/30 10:11:26;;;;;;;16.23;9.10;;;;;;;0.59;67.75;92173.66;4952771;28;20574;-72
2022/01/30 10:14:05;;;;;;;10.57;9.40;;;;;;;0.77;67.14;92160.16;4952648;28;20651;-72
2022/01/30 10:16:36;;;;;;;14.50;7.83;;;;;;;0.93;67.81;92170.72;4953288;28;20669;-72
2022/01/30 10:19:10;;;;;;;10.47;9.43;;;;;;;1.08;67.40;92171.31;4952791;28;20537;-73
2022/01/30 10:21:37;;;;;;;37.87;19.80;;;;;;;1.23;67.48;92168.63;4953907;28;20556;-72
2022/01/30 10:24:19;;;;;;;20.17;14.83;;;;;;;1.83;66.33;92188.38;4956209;28;20512;-71
2022/01/30 10:26:46;;;;;;;23.47;14.77;;;;;;;2.38;63.79;92209.78;4956455;28;20584;-72
2022/01/30 10:29:23;;;;;;;16.70;14.87;;;;;;;3.27;60.98;92212.94;4956305;28;20273;-72
2022/01/30 10:32:06;;;;;;;18.33;14.30;;;;;;;4.19;56.05;92244.06;4956205;28;20472;-72
2022/01/30 10:34:34;;;;;;;21.87;14.50;;;;;;;4.94;53.42;92227.91;4956941;28;20641;-73
2022/01/30 10:37:19;;;;;;;16.63;8.77;;;;;;;6.69;47.68;92245.03;4956600;28;20483;-74
2022/01/30 10:40:02;;;;;;;24.43;11.77;;;;;;;6.76;46.00;92239.75;4955959;28;20517;-75
2022/01/30 10:42:39;;;;;;;16.17;9.70;;;;;;;6.60;45.82;92221.88;4956095;28;20222;-76
2022/01/30 10:45:14;;;;;;;19.67;10.70;;;;;;;6.14;46.88;92202.53;4956893;28;20212;-75
2022/01/30 10:47:42;;;;;;;11.20;8.60;;;;;;;5.74;49.18;92170.41;4956552;28;20500;-76
2022/01/30 10:50:17;;;;;;;11.27;8.47;;;;;;;5.38;50.03;92141.47;4956370;28;20448;-74
2022/01/30 10:52:59;;;;;;;25.03;13.10;;;;;;;5.26;47.80;92155.19;4956477;28;20222;-77
2022/01/30 10:55:35;;;;;;;19.07;10.40;;;;;;;5.83;46.26;92157.56;4947006;28;20548;-75
2022/01/30 10:58:03;;;;;;;34.00;14.80;;;;;;;6.91;47.01;92133.78;4956133;28;20212;-75
2022/01/30 11:00:49;;;;;;;36.47;15.30;;;;;;;7.56;44.27;92137.16;4956385;28;20611;-75
2022/01/30 11:03:36;;;;;;;30.77;17.97;;;;;;;8.56;43.97;92120.50;4956100;28;20478;-76
2022/01/30 11:06:07;;;;;;;51.50;22.90;;;;;;;9.88;42.42;92125.31;4955586;28;20682;-76
2022/01/30 11:08:35;;;;;;;49.57;20.77;;;;;;;11.24;39.78;92121.78;4955269;28;20589;-76
2022/01/30 11:11:08;;;;;;;65.43;26.93;;;;;;;12.27;37.97;92118.63;4955874;28;20551;-74
2022/01/30 11:13:47;;;;;;;37.40;19.37;;;;;;;13.39;36.14;92113.66;4958537;28;20501;-75
2022/01/30 11:19:02;;;;;;;58.13;22.35;;;;;;;13.83;34.99;92090.56;4950157;28;20575;-76
2022/01/30 11:21:30;;;;;;;45.83;19.30;;;;;;;14.00;35.84;92066.63;4947650;28;20196;-76
2022/01/30 11:24:00;;;;;;;61.40;26.33;;;;;;;13.81;35.11;92089.03;4949373;28;20528;-74
2022/01/30 11:26:29;;;;;;;45.38;21.38;;;;;;;12.21;37.03;92080.16;4950858;28;20525;-76
2022/01/30 11:28:57;;;;;;;38.27;16.13;;;;;;;11.21;38.68;92051.13;4944539;28;20204;-76
2022/01/30 11:31:27;;;;;;;29.08;17.10;;;;;;;11.61;38.12;92049.78;4944123;28;20584;-77
2022/01/30 11:33:56;;;;;;;33.17;15.90;;;;;;;11.56;38.96;92051.75;4946204;28;20602;-78
2022/01/30 11:36:24;;;;;;;20.80;10.70;;;;;;;11.56;38.62;92039.91;4950028;28;20553;-77
2022/01/30 11:38:51;;;;;;;40.27;16.20;;;;;;;12.28;38.18;92021.44;4943235;28;20205;-76
2022/01/30 11:41:20;;;;;;;41.08;17.90;;;;;;;12.28;37.51;92040.94;4948166;28;20499;-77
2022/01/30 11:44:27;;;;;;;25.60;13.70;;;;;;;12.15;37.11;92028.16;4951488;28;20588;-77
2022/01/30 11:47:20;;;;;;;28.23;14.13;;;;;;;11.67;37.93;92011.47;4948304;28;20531;-77
2022/01/30 11:49:52;;;;;;;36.53;17.60;;;;;;;10.96;39.78;91998.59;4945692;28;20579;-77
2022/01/30 11:52:21;;;;;;;41.60;17.40;;;;;;;10.22;42.58;91973.06;4948603;28;20460;-76
2022/01/30 11:54:49;;;;;;;33.97;17.00;;;;;;;9.24;44.68;91951.06;4952543;28;20200;-75
2022/01/30 11:57:53;;;;;;;49.40;24.73;;;;;;;8.62;45.65;91949.00;4943614;28;20585;-77
2022/01/30 12:00:38;;;;;;;64.37;26.30;;;;;;;8.13;48.01;91928.53;4945079;28;20499;-77
2022/01/30 12:03:29;;;;;;;74.07;30.13;;;;;;;7.85;49.33;91926.44;4947679;28;20593;-78
2022/01/30 12:06:18;;;;;;;71.07;30.27;;;;;;;7.50;50.49;91912.03;4952272;28;20612;-77
2022/01/30 12:08:47;;;;;;;171.33;49.47;;;;;;;6.84;50.50;91860.41;4950297;28;20504;-77
2022/01/30 12:11:50;;;;;;;174.43;45.73;;;;;;;7.02;50.60;91912.41;4947922;28;20477;-77
2022/01/30 12:14:54;;;;;;;30.70;14.60;;;;;;;6.99;49.85;91904.97;4942877;28;20586;-78